This is the latest recevied weather packets stored in our database for station/object LRSV. If no packets are shown the sender has not sent any weather packets the latest 1 day(s).
| Time | Temp. | Humidity | Pressure | Rain* | Wind** | Luminosity | Snow |
|---|---|---|---|---|---|---|---|
| 1777988000 | 26.11° C | 18% | 1013 hPa | - | 4.02 m/s, 110° | - | - |
| 1777987100 | 26.11° C | 20% | 1013 hPa | - | 2.24 m/s, 140° | - | - |
| 1777986200 | 26.11° C | 20% | 1013 hPa | - | 2.24 m/s, 140° | - | - |
| 1777985300 | 26.11° C | 18% | 1013 hPa | - | 2.68 m/s, 160° | - | - |
| 1777984400 | 26.11° C | 18% | 1013 hPa | - | 2.68 m/s, 160° | - | - |
| 1777983500 | 25° C | 26% | 1014 hPa | - | 3.13 m/s, 160° | - | - |
| 1777982606 | 25° C | 22% | 1014 hPa | - | 2.68 m/s, 140° | - | - |
| 1777981708 | 25° C | 22% | 1014 hPa | - | 2.68 m/s, 140° | - | - |
| 1777980831 | 25° C | 22% | 1014 hPa | - | 2.68 m/s, 140° | - | - |
| 1777967317 | 21.11° C | 46% | 1015 hPa | - | 1.34 m/s, 70° | - | - |
| 1777966400 | 21.11° C | 46% | 1015 hPa | - | 1.34 m/s, 70° | - | - |
| 1777965500 | 20° C | 53% | 1015 hPa | - | 1.34 m/s, 80° | - | - |
| 1777964600 | 20° C | 53% | 1015 hPa | - | 1.34 m/s, 80° | - | - |
| 1777963700 | 17.78° C | 56% | 1015 hPa | - | 2.68 m/s, 230° | - | - |
| 1777962801 | 17.78° C | 56% | 1015 hPa | - | 2.68 m/s, 230° | - | - |
| 1777961900 | 17.22° C | 56% | 1015 hPa | - | 2.24 m/s, 220° | - | - |
| 1777961001 | 17.22° C | 56% | 1015 hPa | - | 2.24 m/s, 220° | - | - |
| 1777960100 | 15° C | 59% | 1015 hPa | - | 2.24 m/s, 200° | - | - |
| 1777959201 | 15° C | 59% | 1015 hPa | - | 2.24 m/s, 200° | - | - |
| 1777956500 | 12.78° C | 59% | 1015 hPa | - | 2.24 m/s, 80° | - | - |
| 1777955600 | 12.78° C | 59% | 1015 hPa | - | 2.24 m/s, 80° | - | - |
| 1777952900 | 13.89° C | 48% | 1014 hPa | - | 3.58 m/s, 270° | - | - |
| 1777952000 | 13.89° C | 48% | 1014 hPa | - | 3.58 m/s, 270° | - | - |
| 1777951100 | 13.89° C | 48% | 1014 hPa | - | 3.13 m/s, 260° | - | - |
| 1777950200 | 13.89° C | 48% | 1014 hPa | - | 3.13 m/s, 260° | - | - |
* Rain since midnight (hover to see other rain measurements)
** Current wind speed in m/s (hover to see current wind gust speed)